createdAt,value
2022-08-21T00:01:37.175Z,18.41
2022-08-21T00:04:08.400Z,18.40
2022-08-21T00:06:35.450Z,18.35
2022-08-21T00:09:06.613Z,18.31
2022-08-21T00:11:36.171Z,18.19
2022-08-21T00:14:04.633Z,18.11
2022-08-21T00:16:31.646Z,18.00
2022-08-21T00:18:58.506Z,17.94
2022-08-21T00:21:26.285Z,17.84
2022-08-21T00:23:53.541Z,17.79
2022-08-21T00:26:20.250Z,17.69
2022-08-21T00:28:47.161Z,17.64
2022-08-21T00:31:15.000Z,17.61
2022-08-21T00:33:42.397Z,17.56
2022-08-21T00:36:09.498Z,17.55
2022-08-21T00:38:36.381Z,17.62
2022-08-21T00:41:25.736Z,17.61
2022-08-21T00:43:54.085Z,17.71
2022-08-21T00:46:21.477Z,17.74
2022-08-21T00:48:51.675Z,17.74
2022-08-21T00:51:29.371Z,17.75
2022-08-21T00:54:00.609Z,17.74
2022-08-21T00:56:29.679Z,17.74
2022-08-21T00:58:59.309Z,17.68
2022-08-21T01:01:26.292Z,17.76
2022-08-21T01:03:53.541Z,17.79
2022-08-21T01:06:21.413Z,17.81
2022-08-21T01:08:48.379Z,17.84
2022-08-21T01:11:16.832Z,17.84
2022-08-21T01:13:47.462Z,17.83
2022-08-21T01:16:18.462Z,17.83
2022-08-21T01:18:48.694Z,17.79
2022-08-21T01:21:17.342Z,17.73
2022-08-21T01:23:49.457Z,17.68
2022-08-21T01:26:18.137Z,17.59
2022-08-21T01:29:03.174Z,17.53
2022-08-21T01:31:32.579Z,17.38
2022-08-21T01:34:00.585Z,17.39
2022-08-21T01:36:28.563Z,17.31
2022-08-21T01:38:56.020Z,17.25
2022-08-21T01:41:22.895Z,17.21
2022-08-21T01:43:50.331Z,17.17
2022-08-21T01:46:17.448Z,17.22
2022-08-21T01:48:44.334Z,17.08
2022-08-21T01:51:12.872Z,17.09
2022-08-21T01:53:39.932Z,17.10
2022-08-21T01:56:12.102Z,17.03
2022-08-21T01:58:41.505Z,17.00
2022-08-21T02:01:08.978Z,16.95
2022-08-21T02:03:36.508Z,16.88
2022-08-21T02:06:06.551Z,16.84
2022-08-21T02:08:34.163Z,16.81
2022-08-21T02:11:01.292Z,16.74
2022-08-21T02:13:28.210Z,16.71
2022-08-21T02:15:55.946Z,16.68
2022-08-21T02:18:22.827Z,16.70
2022-08-21T02:20:55.733Z,16.66
2022-08-21T02:23:26.654Z,16.66
2022-08-21T02:25:59.109Z,16.65
2022-08-21T02:28:28.118Z,16.59
2022-08-21T02:30:56.904Z,16.58
2022-08-21T02:33:24.980Z,16.55
2022-08-21T02:35:52.996Z,16.53
2022-08-21T02:38:24.001Z,16.53
2022-08-21T02:40:52.796Z,16.46
2022-08-21T02:43:22.322Z,16.39
2022-08-21T02:45:50.281Z,16.36
2022-08-21T02:48:21.895Z,16.35
2022-08-21T02:50:53.982Z,16.40
2022-08-21T02:53:20.909Z,16.35
2022-08-21T02:55:50.010Z,16.36
2022-08-21T02:58:19.244Z,16.28
2022-08-21T03:00:46.725Z,16.21
2022-08-21T03:03:14.835Z,16.21
2022-08-21T03:05:43.110Z,16.11
2022-08-21T03:08:11.746Z,16.11
2022-08-21T03:10:43.766Z,16.11
2022-08-21T03:13:11.642Z,16.08
2022-08-21T03:15:39.269Z,16.04
2022-08-21T03:18:06.476Z,16.05
2022-08-21T03:20:33.883Z,16.05
2022-08-21T03:23:01.950Z,16.02
2022-08-21T03:25:33.716Z,16.00
2022-08-21T03:28:14.725Z,15.90
2022-08-21T03:30:43.631Z,15.91
2022-08-21T03:33:12.928Z,15.91
2022-08-21T03:35:44.920Z,15.84
2022-08-21T03:38:13.789Z,15.79
2022-08-21T03:40:41.250Z,15.74
2022-08-21T03:43:10.128Z,15.68
2022-08-21T03:45:37.147Z,15.68
2022-08-21T03:48:06.333Z,15.69
2022-08-21T03:50:41.219Z,15.62
2022-08-21T03:53:17.282Z,15.53
2022-08-21T03:55:51.976Z,15.51
2022-08-21T03:58:22.066Z,15.48
2022-08-21T04:00:52.278Z,15.45
2022-08-21T04:03:19.752Z,15.45
2022-08-21T04:05:47.032Z,15.46
2022-08-21T04:08:15.086Z,15.47
2022-08-21T04:10:44.886Z,15.48
2022-08-21T04:13:11.971Z,15.45
2022-08-21T04:15:39.245Z,15.44
2022-08-21T04:18:07.701Z,15.45
2022-08-21T04:20:35.302Z,15.43
2022-08-21T04:23:03.786Z,15.40
2022-08-21T04:25:31.113Z,15.38
2022-08-21T04:27:58.297Z,15.39
2022-08-21T04:30:28.208Z,15.39
2022-08-21T04:32:57.938Z,15.38
2022-08-21T04:35:27.646Z,15.39
2022-08-21T04:37:54.829Z,15.39
2022-08-21T04:40:23.679Z,15.34
2022-08-21T04:42:53.781Z,15.35
2022-08-21T04:45:33.783Z,15.29
2022-08-21T04:48:03.469Z,15.30
2022-08-21T04:50:40.567Z,15.31
2022-08-21T04:53:11.579Z,15.32
2022-08-21T04:55:39.374Z,15.33
2022-08-21T04:58:08.515Z,15.32
2022-08-21T05:00:35.622Z,15.34
2022-08-21T05:03:04.324Z,15.41
2022-08-21T05:05:31.272Z,15.41
2022-08-21T05:08:02.298Z,15.45
2022-08-21T05:10:29.449Z,15.46
2022-08-21T05:12:56.950Z,15.43
2022-08-21T05:15:23.928Z,15.44
2022-08-21T05:17:53.746Z,15.47
2022-08-21T05:20:29.273Z,15.53
2022-08-21T05:22:56.315Z,15.53
2022-08-21T05:25:23.623Z,15.54
2022-08-21T05:27:52.329Z,15.58
2022-08-21T05:30:20.553Z,15.60
2022-08-21T05:32:51.271Z,15.66
2022-08-21T05:35:18.223Z,15.74
2022-08-21T05:37:45.173Z,15.73
2022-08-21T05:40:20.994Z,15.83
2022-08-21T05:42:54.893Z,15.86
2022-08-21T05:45:41.633Z,15.91
2022-08-21T05:48:16.224Z,15.95
2022-08-21T05:50:43.966Z,15.97
2022-08-21T05:53:11.276Z,16.03
2022-08-21T05:55:44.215Z,16.00
2022-08-21T05:58:16.787Z,16.10
2022-08-21T06:00:45.277Z,16.19
2022-08-21T06:03:18.608Z,16.22
2022-08-21T06:05:46.625Z,16.24
2022-08-21T06:08:18.770Z,16.32
2022-08-21T06:10:47.011Z,16.41
2022-08-21T06:13:14.575Z,16.42
2022-08-21T06:15:41.465Z,16.49
2022-08-21T06:18:08.811Z,16.56
2022-08-21T06:20:35.865Z,16.58
2022-08-21T06:23:02.895Z,16.64
2022-08-21T06:25:30.166Z,16.73
2022-08-21T06:28:06.374Z,16.87
2022-08-21T06:30:33.805Z,16.94
2022-08-21T06:33:01.074Z,17.02
2022-08-21T06:35:30.110Z,17.10
2022-08-21T06:37:58.453Z,17.17
2022-08-21T06:40:27.608Z,17.29
2022-08-21T06:42:58.322Z,17.36
2022-08-21T06:45:25.633Z,17.41
2022-08-21T06:47:56.020Z,17.53
2022-08-21T06:50:22.934Z,17.54
2022-08-21T06:52:49.738Z,17.69
2022-08-21T06:55:21.651Z,17.80
2022-08-21T06:57:52.504Z,17.87
2022-08-21T07:00:19.970Z,17.93
2022-08-21T07:02:46.703Z,18.02
2022-08-21T07:05:18.125Z,18.08
2022-08-21T07:07:46.053Z,18.16
2022-08-21T07:10:22.467Z,18.29
2022-08-21T07:12:55.212Z,18.36
2022-08-21T07:15:30.350Z,18.52
2022-08-21T07:17:58.562Z,18.62
2022-08-21T07:20:25.803Z,18.72
2022-08-21T07:22:52.833Z,18.79
2022-08-21T07:25:19.775Z,18.88
2022-08-21T07:27:46.498Z,18.98
2022-08-21T07:30:13.550Z,19.02
2022-08-21T07:32:40.432Z,19.05
2022-08-21T07:35:08.411Z,19.15
2022-08-21T07:37:35.364Z,19.22
2022-08-21T07:40:02.317Z,19.24
2022-08-21T07:42:29.119Z,19.29
2022-08-21T07:44:56.580Z,19.36
2022-08-21T07:47:41.372Z,19.51
2022-08-21T07:50:14.201Z,19.64
2022-08-21T07:52:42.302Z,19.74
2022-08-21T07:55:12.723Z,19.76
2022-08-21T07:57:39.838Z,19.90
2022-08-21T08:00:10.031Z,19.94
2022-08-21T08:02:37.236Z,19.89
2022-08-21T08:05:12.175Z,20.07
2022-08-21T08:07:39.936Z,20.02
2022-08-21T08:10:08.630Z,20.19
2022-08-21T08:12:37.249Z,20.24
2022-08-21T08:15:05.649Z,20.34
2022-08-21T08:17:33.387Z,20.37
2022-08-21T08:20:03.725Z,20.46
2022-08-21T08:22:30.607Z,20.54
2022-08-21T08:24:58.942Z,20.63
2022-08-21T08:27:26.856Z,20.73
2022-08-21T08:29:54.126Z,20.80
2022-08-21T08:32:21.069Z,20.83
2022-08-21T08:34:49.897Z,20.95
2022-08-21T08:37:17.428Z,21.08
2022-08-21T08:39:44.983Z,21.05
2022-08-21T08:42:33.500Z,21.14
2022-08-21T08:45:10.145Z,21.01
2022-08-21T08:47:41.144Z,21.32
2022-08-21T08:50:22.518Z,21.31
2022-08-21T08:53:05.738Z,21.55
2022-08-21T08:55:41.598Z,21.69
2022-08-21T08:58:24.633Z,21.88
2022-08-21T09:00:53.888Z,22.11
2022-08-21T09:03:23.346Z,22.33
2022-08-21T09:06:30.112Z,22.40
2022-08-21T09:09:12.464Z,22.53
2022-08-21T09:12:01.299Z,22.41
2022-08-21T09:14:57.472Z,22.38
2022-08-21T09:17:31.833Z,22.79
2022-08-21T09:20:19.916Z,23.03
2022-08-21T09:22:55.376Z,23.14
2022-08-21T09:25:33.619Z,23.32
2022-08-21T09:28:00.331Z,23.27
2022-08-21T09:30:33.613Z,22.91
2022-08-21T09:35:28.072Z,22.81
2022-08-21T09:38:02.155Z,22.74
2022-08-21T09:40:43.866Z,22.72
2022-08-21T09:43:10.511Z,22.94
2022-08-21T09:45:37.360Z,23.15
2022-08-21T09:48:14.343Z,23.46
2022-08-21T09:50:42.707Z,23.28
2022-08-21T09:53:36.019Z,23.35
2022-08-21T09:56:35.889Z,23.57
2022-08-21T09:59:17.793Z,23.99
2022-08-21T10:01:49.881Z,24.06
2022-08-21T10:04:22.590Z,23.96
2022-08-21T10:06:49.418Z,23.98
2022-08-21T10:09:21.659Z,24.69
2022-08-21T10:12:13.265Z,25.05
2022-08-21T10:14:53.841Z,25.67
2022-08-21T10:17:45.961Z,25.77
2022-08-21T10:20:26.444Z,25.52
2022-08-21T10:23:03.524Z,25.77
2022-08-21T10:26:13.418Z,25.14
2022-08-21T10:28:54.285Z,25.81
2022-08-21T10:31:29.970Z,26.40
2022-08-21T10:34:25.588Z,26.69
2022-08-21T10:37:10.714Z,27.26
2022-08-21T10:39:58.361Z,27.41
2022-08-21T10:42:35.090Z,27.47
2022-08-21T10:45:15.317Z,27.65
2022-08-21T10:47:48.996Z,28.32
2022-08-21T10:50:25.910Z,28.34
2022-08-21T10:53:04.646Z,27.74
2022-08-21T10:55:53.089Z,27.68
2022-08-21T10:58:31.282Z,27.72
2022-08-21T11:01:08.759Z,28.07
2022-08-21T11:03:44.738Z,28.08
2022-08-21T11:06:21.131Z,28.27
2022-08-21T11:08:58.416Z,28.41
2022-08-21T11:11:36.180Z,28.76
2022-08-21T11:14:50.154Z,29.01
2022-08-21T11:17:24.227Z,29.05
2022-08-21T11:20:09.636Z,28.94
2022-08-21T11:23:19.468Z,28.92
2022-08-21T11:25:53.189Z,29.38
2022-08-21T11:28:29.330Z,29.30
2022-08-21T11:31:22.263Z,29.16
2022-08-21T11:33:50.063Z,29.68
2022-08-21T11:36:16.963Z,30.01
2022-08-21T11:38:50.874Z,30.44
2022-08-21T11:41:35.663Z,30.47
2022-08-21T11:44:19.141Z,30.38
2022-08-21T11:46:59.630Z,30.37
2022-08-21T11:49:45.347Z,30.36
2022-08-21T11:52:19.305Z,30.28
2022-08-21T11:55:06.398Z,30.28
2022-08-21T11:58:05.366Z,29.23
2022-08-21T12:00:41.813Z,29.52
2022-08-21T12:03:14.973Z,29.01
2022-08-21T12:05:45.320Z,29.35
2022-08-21T12:08:31.453Z,29.42
2022-08-21T12:11:17.075Z,29.03
2022-08-21T12:14:13.606Z,29.14
2022-08-21T12:16:43.734Z,29.57
2022-08-21T12:19:15.247Z,29.09
2022-08-21T12:21:59.499Z,29.61
2022-08-21T12:24:29.087Z,29.35
2022-08-21T12:26:59.265Z,29.61
2022-08-21T12:29:37.247Z,29.92
2022-08-21T12:32:45.804Z,29.35
2022-08-21T12:35:24.610Z,29.64
2022-08-21T12:38:08.314Z,29.64
2022-08-21T12:41:03.912Z,29.44
2022-08-21T12:43:30.524Z,28.73
2022-08-21T12:46:00.064Z,28.71
2022-08-21T12:48:26.782Z,28.75
2022-08-21T12:50:57.742Z,28.54
2022-08-21T12:53:39.973Z,28.89
2022-08-21T12:56:12.342Z,29.11
2022-08-21T12:58:45.968Z,29.00
2022-08-21T13:01:50.430Z,28.90
2022-08-21T13:04:22.978Z,29.31
2022-08-21T13:06:54.238Z,29.18
2022-08-21T13:09:26.589Z,29.51
2022-08-21T13:11:54.521Z,29.47
2022-08-21T13:14:45.087Z,29.34
2022-08-21T13:17:13.915Z,29.63
2022-08-21T13:20:00.394Z,28.89
2022-08-21T13:22:33.917Z,28.36
2022-08-21T13:25:06.531Z,27.95
2022-08-21T13:27:33.644Z,28.44
2022-08-21T13:30:06.857Z,28.50
2022-08-21T13:32:38.821Z,28.24
2022-08-21T13:35:12.898Z,28.55
2022-08-21T13:37:42.076Z,29.24
2022-08-21T13:40:14.656Z,29.78
2022-08-21T13:42:44.168Z,29.86
2022-08-21T13:45:16.805Z,29.98
2022-08-21T13:47:47.258Z,30.17
2022-08-21T13:50:16.405Z,30.31
2022-08-21T13:52:59.769Z,30.42
2022-08-21T13:55:34.572Z,30.26
2022-08-21T13:58:02.190Z,30.62
2022-08-21T14:00:31.751Z,30.88
2022-08-21T14:03:11.157Z,30.72
2022-08-21T14:05:46.359Z,30.75
2022-08-21T14:08:30.265Z,29.38
2022-08-21T14:10:58.135Z,30.04
2022-08-21T14:13:42.482Z,30.48
2022-08-21T14:16:18.726Z,31.19
2022-08-21T14:19:11.789Z,31.37
2022-08-21T14:21:44.598Z,31.83
2022-08-21T14:24:26.689Z,30.84
2022-08-21T14:27:08.148Z,31.37
2022-08-21T14:29:39.914Z,31.38
2022-08-21T14:32:24.956Z,31.62
2022-08-21T14:34:52.524Z,32.09
2022-08-21T14:37:23.481Z,32.42
2022-08-21T14:39:51.041Z,32.82
2022-08-21T14:42:17.816Z,33.66
2022-08-21T14:44:44.657Z,33.90
2022-08-21T14:47:12.063Z,33.25
2022-08-21T14:49:39.032Z,32.46
2022-08-21T14:52:05.772Z,32.26
2022-08-21T14:54:33.153Z,31.92
2022-08-21T14:57:03.562Z,30.54
2022-08-21T14:59:31.142Z,31.74
2022-08-21T15:01:57.982Z,32.17
2022-08-21T15:04:24.795Z,32.62
2022-08-21T15:06:51.805Z,32.71
2022-08-21T15:09:18.581Z,32.06
2022-08-21T15:11:45.646Z,31.20
2022-08-21T15:14:19.906Z,31.76
2022-08-21T15:16:47.239Z,32.72
2022-08-21T15:19:14.136Z,33.57
2022-08-21T15:21:40.871Z,33.89
2022-08-21T15:24:07.765Z,34.02
2022-08-21T15:26:35.240Z,34.31
2022-08-21T15:29:02.365Z,33.94
2022-08-21T15:31:33.504Z,34.00
2022-08-21T15:34:00.352Z,33.22
2022-08-21T15:36:27.182Z,32.48
2022-08-21T15:38:54.031Z,31.86
2022-08-21T15:41:20.850Z,31.30
2022-08-21T15:43:51.681Z,31.17
2022-08-21T15:46:20.538Z,30.78
2022-08-21T15:48:48.311Z,31.04
2022-08-21T15:51:17.707Z,30.59
2022-08-21T15:53:45.856Z,30.06
2022-08-21T15:56:23.237Z,29.31
2022-08-21T15:58:53.352Z,29.31
2022-08-21T16:01:22.222Z,29.68
2022-08-21T16:03:51.462Z,29.69
2022-08-21T16:06:18.470Z,29.57
2022-08-21T16:09:05.452Z,29.30
2022-08-21T16:11:32.441Z,29.46
2022-08-21T16:13:59.516Z,29.48
2022-08-21T16:16:37.294Z,29.93
2022-08-21T16:19:07.155Z,30.35
2022-08-21T16:21:35.709Z,30.72
2022-08-21T16:24:02.581Z,31.29
2022-08-21T16:26:30.575Z,31.54
2022-08-21T16:29:00.207Z,31.83
2022-08-21T16:31:27.884Z,32.09
2022-08-21T16:33:57.999Z,31.85
2022-08-21T16:36:28.745Z,31.94
2022-08-21T16:38:57.559Z,32.18
2022-08-21T16:41:27.351Z,31.73
2022-08-21T16:43:54.454Z,31.35
2022-08-21T16:46:22.591Z,30.68
2022-08-21T16:48:50.265Z,29.95
2022-08-21T16:51:17.757Z,30.06
2022-08-21T16:53:44.778Z,29.72
2022-08-21T16:56:15.651Z,29.88
2022-08-21T16:58:47.666Z,29.46
2022-08-21T17:01:18.440Z,28.72
2022-08-21T17:03:47.961Z,28.03
2022-08-21T17:06:16.061Z,27.57
2022-08-21T17:08:42.964Z,27.77
2022-08-21T17:11:36.599Z,27.59
2022-08-21T17:14:08.493Z,27.51
2022-08-21T17:16:35.612Z,27.04
2022-08-21T17:19:04.586Z,26.97
2022-08-21T17:21:31.336Z,26.89
2022-08-21T17:23:58.535Z,26.57
2022-08-21T17:26:25.720Z,26.52
2022-08-21T17:28:54.920Z,26.62
2022-08-21T17:31:22.168Z,26.69
2022-08-21T17:33:53.048Z,26.66
2022-08-21T17:36:22.072Z,26.61
2022-08-21T17:38:49.437Z,26.62
2022-08-21T17:41:16.964Z,26.58
2022-08-21T17:43:44.513Z,26.50
2022-08-21T17:46:17.332Z,26.48
2022-08-21T17:48:47.251Z,26.53
2022-08-21T17:51:15.415Z,26.51
2022-08-21T17:53:42.684Z,26.50
2022-08-21T17:56:09.812Z,26.44
2022-08-21T17:58:38.142Z,26.24
2022-08-21T18:01:06.047Z,26.17
2022-08-21T18:03:37.295Z,26.04
2022-08-21T18:06:05.619Z,25.91
2022-08-21T18:08:32.840Z,25.85
2022-08-21T18:11:00.724Z,25.79
2022-08-21T18:13:31.187Z,25.71
2022-08-21T18:16:00.332Z,25.68
2022-08-21T18:18:32.901Z,25.64
2022-08-21T18:20:59.877Z,25.60
2022-08-21T18:23:43.109Z,25.58
2022-08-21T18:26:16.271Z,25.50
2022-08-21T18:28:44.340Z,25.34
2022-08-21T18:31:12.228Z,25.23
2022-08-21T18:33:57.697Z,25.23
2022-08-21T18:36:27.455Z,25.13
2022-08-21T18:39:04.420Z,24.97
2022-08-21T18:41:41.815Z,24.90
2022-08-21T18:44:08.608Z,24.65
2022-08-21T18:46:35.332Z,24.45
2022-08-21T18:49:02.198Z,24.33
2022-08-21T18:51:30.319Z,24.14
2022-08-21T18:53:57.413Z,24.00
2022-08-21T18:56:24.963Z,23.92
2022-08-21T18:58:57.648Z,23.83
2022-08-21T19:01:25.671Z,23.72
2022-08-21T19:03:52.838Z,23.52
2022-08-21T19:06:19.767Z,23.48
2022-08-21T19:08:46.598Z,23.45
2022-08-21T19:11:13.673Z,23.48
2022-08-21T19:13:40.984Z,23.48
2022-08-21T19:16:09.603Z,23.46
2022-08-21T19:18:40.994Z,23.26
2022-08-21T19:21:08.112Z,23.20
2022-08-21T19:23:35.552Z,23.07
2022-08-21T19:26:06.026Z,23.15
2022-08-21T19:28:39.692Z,23.14
2022-08-21T19:31:12.958Z,23.09
2022-08-21T19:33:46.923Z,23.09
2022-08-21T19:36:18.707Z,23.07
2022-08-21T19:38:46.961Z,23.08
2022-08-21T19:41:16.747Z,22.98
2022-08-21T19:43:53.222Z,23.07
2022-08-21T19:46:31.996Z,23.05
2022-08-21T19:49:00.732Z,23.00
2022-08-21T19:51:27.985Z,23.01
2022-08-21T19:53:57.291Z,22.97
2022-08-21T19:56:27.821Z,22.87
2022-08-21T19:58:55.564Z,22.80
2022-08-21T20:01:25.400Z,22.66
2022-08-21T20:03:54.062Z,22.46
2022-08-21T20:06:24.048Z,22.44
2022-08-21T20:08:52.016Z,22.37
2022-08-21T20:11:26.435Z,22.25
2022-08-21T20:13:54.079Z,22.15
2022-08-21T20:16:21.643Z,22.10
2022-08-21T20:18:49.154Z,22.16
2022-08-21T20:21:16.279Z,22.11
2022-08-21T20:23:48.903Z,22.10
2022-08-21T20:26:17.650Z,22.08
2022-08-21T20:28:50.486Z,22.07
2022-08-21T20:31:20.080Z,22.05
2022-08-21T20:33:47.605Z,22.07
2022-08-21T20:36:17.356Z,21.98
2022-08-21T20:38:44.590Z,21.84
2022-08-21T20:41:21.095Z,21.76
2022-08-21T20:43:49.737Z,21.67
2022-08-21T20:46:21.813Z,21.77
2022-08-21T20:48:49.934Z,21.73
2022-08-21T20:51:39.697Z,21.67
2022-08-21T20:54:31.354Z,21.64
2022-08-21T20:57:18.890Z,21.56
2022-08-21T20:59:55.474Z,21.55
2022-08-21T21:02:50.010Z,21.52
2022-08-21T21:05:24.699Z,21.49
2022-08-21T21:08:07.176Z,21.51
2022-08-21T21:11:06.648Z,21.45
2022-08-21T21:13:36.281Z,21.44
2022-08-21T21:16:51.232Z,21.44
2022-08-21T21:19:25.966Z,21.40
2022-08-21T21:22:04.630Z,21.33
2022-08-21T21:24:41.728Z,21.32
2022-08-21T21:27:18.621Z,21.32
2022-08-21T21:30:22.864Z,21.36
2022-08-21T21:32:50.589Z,21.33
2022-08-21T21:35:22.356Z,21.26
2022-08-21T21:38:08.614Z,21.24
2022-08-21T21:41:01.197Z,21.24
2022-08-21T21:43:55.433Z,21.18
2022-08-21T21:49:58.355Z,21.00
2022-08-21T21:52:54.725Z,20.96
2022-08-21T21:55:40.600Z,20.89
2022-08-21T21:58:39.785Z,20.87
2022-08-21T22:01:32.130Z,20.80
2022-08-21T22:04:05.506Z,20.78
2022-08-21T22:07:01.695Z,20.74
2022-08-21T22:09:34.309Z,20.67
2022-08-21T22:12:32.923Z,20.67
2022-08-21T22:15:02.061Z,20.65
2022-08-21T22:17:41.178Z,20.64
2022-08-21T22:20:15.720Z,20.59
2022-08-21T22:22:45.448Z,20.57
2022-08-21T22:25:26.187Z,20.52
2022-08-21T22:28:07.898Z,20.49
2022-08-21T22:30:55.573Z,20.52
2022-08-21T22:33:29.656Z,20.51
2022-08-21T22:35:58.950Z,20.52
2022-08-21T22:38:37.106Z,20.53
2022-08-21T22:41:18.201Z,20.40
2022-08-21T22:43:52.849Z,20.38
2022-08-21T22:46:42.876Z,20.31
2022-08-21T22:49:17.193Z,20.29
2022-08-21T22:51:49.332Z,20.35
2022-08-21T22:54:32.745Z,20.28
2022-08-21T22:57:07.526Z,20.28
2022-08-21T22:59:52.343Z,20.21
2022-08-21T23:02:42.802Z,20.10
2022-08-21T23:05:21.689Z,20.13
2022-08-21T23:07:50.240Z,20.05
2022-08-21T23:10:19.666Z,20.05
2022-08-21T23:15:55.262Z,19.89
2022-08-21T23:18:31.466Z,19.98
2022-08-21T23:21:33.303Z,19.91
2022-08-21T23:24:07.218Z,19.87
2022-08-21T23:27:00.840Z,19.84
2022-08-21T23:29:33.691Z,19.83
2022-08-21T23:32:39.116Z,19.81
2022-08-21T23:35:22.114Z,19.70
2022-08-21T23:38:29.017Z,19.65
2022-08-21T23:40:58.478Z,19.59
2022-08-21T23:44:12.660Z,19.49
2022-08-21T23:46:59.836Z,19.47
2022-08-21T23:49:44.074Z,19.50
2022-08-21T23:52:26.286Z,19.46
2022-08-21T23:55:40.217Z,19.43
2022-08-21T23:58:26.121Z,19.38
